Time;durP1;ratioP1;P1;durP2;ratioP2;P2;SDS_P1;SDS_P2;PMS_P1;PMS_P2;Temp;Humidity;BMP_temperature;BMP_pressure;BME280_temperature;BME280_humidity;BME280_pressure;Samples;Min_cycle;Max_cycle;Signal;HPM_P1;HPM_P2
2021/05/26 00:01:31;;;;;;;1.45;0.98;;;17.20;58.50;;;;;;5053515;28;20186;-63
2021/05/26 00:03:56;;;;;;;2.13;0.90;;;17.20;58.50;;;;;;5054133;28;20709;-63
2021/05/26 00:06:22;;;;;;;1.85;1.10;;;17.20;58.50;;;;;;5053605;28;20228;-63
2021/05/26 00:08:48;;;;;;;1.25;1.02;;;17.20;58.50;;;;;;5053716;28;20167;-64
2021/05/26 00:11:14;;;;;;;1.30;1.02;;;17.20;58.50;;;;;;5054114;28;20535;-64
2021/05/26 00:13:40;;;;;;;1.55;1.20;;;17.20;58.50;;;;;;5053020;28;20175;-63
2021/05/26 00:16:06;;;;;;;1.17;0.82;;;17.10;58.50;;;;;;5054137;28;20272;-63
2021/05/26 00:18:33;;;;;;;1.00;0.90;;;17.20;58.50;;;;;;5053828;28;20704;-63
2021/05/26 00:20:59;;;;;;;0.85;0.85;;;17.20;58.60;;;;;;5053054;28;20637;-63
2021/05/26 00:23:24;;;;;;;1.35;0.85;;;17.20;58.50;;;;;;5053782;28;20638;-62
2021/05/26 00:25:50;;;;;;;2.00;0.98;;;17.10;58.50;;;;;;5053391;28;20339;-63
2021/05/26 00:28:15;;;;;;;1.35;1.10;;;17.20;58.50;;;;;;5052970;28;20190;-63
2021/05/26 00:30:47;;;;;;;1.40;0.98;;;17.10;58.50;;;;;;5053686;28;20246;-63
2021/05/26 00:33:13;;;;;;;0.90;0.80;;;17.10;58.50;;;;;;5053864;28;20237;-62
2021/05/26 00:35:38;;;;;;;0.90;0.75;;;17.10;58.50;;;;;;5053240;28;20159;-63
2021/05/26 00:38:04;;;;;;;0.90;0.90;;;17.10;58.50;;;;;;5053494;28;20207;-63
2021/05/26 00:40:29;;;;;;;1.40;1.30;;;17.10;58.50;;;;;;5053302;28;20701;-63
2021/05/26 00:42:55;;;;;;;0.93;0.90;;;17.10;58.50;;;;;;5052334;28;20193;-63
2021/05/26 00:45:20;;;;;;;1.55;0.88;;;17.10;58.50;;;;;;5053658;28;20174;-62
2021/05/26 00:47:49;;;;;;;0.82;0.80;;;17.10;58.50;;;;;;5053253;28;20186;-63
2021/05/26 00:50:20;;;;;;;0.70;0.70;;;17.10;58.50;;;;;;5052521;28;20196;-63
2021/05/26 00:52:45;;;;;;;0.82;0.70;;;17.10;58.40;;;;;;5052893;28;20186;-63
2021/05/26 00:55:13;;;;;;;2.08;1.00;;;17.10;58.40;;;;;;5053347;28;20164;-63
2021/05/26 00:57:38;;;;;;;2.22;1.63;;;17.10;58.50;;;;;;5052062;28;20211;-63
2021/05/26 01:00:08;;;;;;;0.80;0.80;;;17.10;58.40;;;;;;5053043;28;20590;-63
2021/05/26 01:02:33;;;;;;;1.80;1.10;;;17.10;58.40;;;;;;5052331;28;20190;-63
2021/05/26 01:04:59;;;;;;;1.38;0.95;;;17.10;58.40;;;;;;5053045;28;20171;-63
2021/05/26 01:07:24;;;;;;;1.10;0.90;;;17.10;59.10;;;;;;5053112;28;20571;-64
2021/05/26 01:09:50;;;;;;;2.00;1.23;;;17.10;58.40;;;;;;5052031;28;20947;-64
2021/05/26 01:12:15;;;;;;;1.80;1.00;;;17.10;58.40;;;;;;5052900;28;20229;-63
2021/05/26 01:14:41;;;;;;;1.27;1.10;;;17.00;58.40;;;;;;5052958;28;20210;-63
2021/05/26 01:17:06;;;;;;;1.08;0.80;;;17.10;58.40;;;;;;5052294;28;20255;-63
2021/05/26 01:19:32;;;;;;;1.48;0.90;;;17.10;58.40;;;;;;5052662;28;20325;-62
2021/05/26 01:21:57;;;;;;;0.80;0.80;;;17.00;58.40;;;;;;5052886;28;20705;-62
2021/05/26 01:24:23;;;;;;;0.90;0.90;;;17.00;58.40;;;;;;5052312;28;20171;-63
2021/05/26 01:26:48;;;;;;;0.80;0.80;;;17.00;58.30;;;;;;5052399;28;20242;-63
2021/05/26 01:29:15;;;;;;;0.77;0.77;;;17.00;58.40;;;;;;5053080;28;20540;-63
2021/05/26 01:31:40;;;;;;;1.10;0.82;;;17.00;58.30;;;;;;5051906;28;20178;-63
2021/05/26 01:34:06;;;;;;;1.20;0.90;;;17.00;58.30;;;;;;5052618;28;20278;-63
2021/05/26 01:36:34;;;;;;;1.23;0.90;;;17.00;58.30;;;;;;5052439;28;20187;-63
2021/05/26 01:39:00;;;;;;;0.82;0.70;;;17.00;58.40;;;;;;5051682;28;20233;-62
2021/05/26 01:41:26;;;;;;;0.80;0.60;;;17.00;58.30;;;;;;5052487;28;20246;-63
2021/05/26 01:43:54;;;;;;;0.80;0.80;;;17.00;58.30;;;;;;5052370;28;20183;-63
2021/05/26 01:46:22;;;;;;;1.50;0.88;;;17.00;58.30;;;;;;5052210;28;20253;-63
2021/05/26 01:48:48;;;;;;;0.80;0.80;;;17.00;58.30;;;;;;5052124;28;20609;-63
2021/05/26 01:51:13;;;;;;;0.85;0.80;;;17.00;58.30;;;;;;5052362;28;20661;-63
2021/05/26 01:53:39;;;;;;;1.08;0.80;;;17.00;58.30;;;;;;5051566;28;20183;-63
2021/05/26 01:56:12;;;;;;;1.15;0.80;;;17.00;58.40;;;;;;5052546;28;20163;-63
2021/05/26 01:58:38;;;;;;;0.60;0.60;;;17.00;58.30;;;;;;5052012;28;20617;-63
2021/05/26 02:01:03;;;;;;;1.45;0.90;;;16.90;58.30;;;;;;5051742;28;20182;-63
2021/05/26 02:03:29;;;;;;;1.38;1.00;;;16.90;58.30;;;;;;5056467;28;20181;-63
2021/05/26 02:05:54;;;;;;;0.80;0.80;;;17.00;58.30;;;;;;5055487;28;20167;-63
2021/05/26 02:08:20;;;;;;;0.63;0.63;;;17.00;58.30;;;;;;5038585;28;20174;-63
2021/05/26 02:13:29;;;;;;;1.13;0.77;;;16.90;58.30;;;;;;5055797;28;20551;-63
2021/05/26 02:15:55;;;;;;;1.88;0.88;;;16.90;58.30;;;;;;5056146;28;20171;-63
2021/05/26 02:18:20;;;;;;;1.85;0.98;;;16.90;58.30;;;;;;5056330;28;20218;-63
2021/05/26 02:20:46;;;;;;;1.13;0.60;;;16.90;58.30;;;;;;5055131;28;20209;-63
2021/05/26 02:23:13;;;;;;;1.02;0.90;;;16.90;58.30;;;;;;5056171;28;20548;-63
2021/05/26 02:25:38;;;;;;;1.00;0.70;;;17.00;58.30;;;;;;5056120;28;20174;-63
2021/05/26 02:28:04;;;;;;;0.80;0.80;;;16.90;58.30;;;;;;5055467;28;20236;-63
2021/05/26 02:30:29;;;;;;;0.70;0.70;;;16.90;58.30;;;;;;5056285;28;20506;-63
2021/05/26 02:32:55;;;;;;;0.93;0.80;;;16.90;58.30;;;;;;5055590;28;20198;-63
2021/05/26 02:35:20;;;;;;;0.98;0.80;;;16.90;58.30;;;;;;5055344;28;20572;-63
2021/05/26 02:37:46;;;;;;;0.77;0.77;;;16.90;58.30;;;;;;5055669;28;20214;-63
2021/05/26 02:40:12;;;;;;;0.60;0.60;;;16.90;58.30;;;;;;5055928;28;20219;-63
2021/05/26 02:42:37;;;;;;;0.70;0.70;;;16.90;58.30;;;;;;5054897;28;20179;-62
2021/05/26 02:45:04;;;;;;;0.80;0.75;;;16.90;58.30;;;;;;5055891;28;20175;-63
2021/05/26 02:47:29;;;;;;;0.80;0.80;;;16.90;58.30;;;;;;5055935;28;20186;-63
2021/05/26 02:49:55;;;;;;;0.70;0.70;;;16.90;58.30;;;;;;5054605;28;20171;-63
2021/05/26 02:52:20;;;;;;;1.65;0.90;;;16.90;58.30;;;;;;5055610;28;20175;-63
2021/05/26 02:54:46;;;;;;;0.82;0.80;;;16.90;58.30;;;;;;5055370;28;20695;-63
2021/05/26 02:57:11;;;;;;;1.30;0.85;;;16.90;58.30;;;;;;5055142;28;20181;-63
2021/05/26 02:59:37;;;;;;;1.58;0.95;;;16.90;58.30;;;;;;5055252;28;20209;-62
2021/05/26 03:02:02;;;;;;;0.60;0.60;;;16.90;58.30;;;;;;5055191;28;20729;-63
2021/05/26 03:04:28;;;;;;;0.95;0.73;;;16.80;58.30;;;;;;5055104;28;20649;-63
2021/05/26 03:06:53;;;;;;;1.48;0.88;;;16.90;58.30;;;;;;5055281;28;20194;-63
2021/05/26 03:09:19;;;;;;;0.95;0.82;;;16.80;58.30;;;;;;5054721;28;20222;-63
2021/05/26 03:11:44;;;;;;;0.90;0.80;;;16.90;58.30;;;;;;5055006;28;20793;-63
2021/05/26 03:14:10;;;;;;;0.70;0.70;;;16.80;58.30;;;;;;5054895;28;20179;-63
2021/05/26 03:16:38;;;;;;;1.00;0.93;;;16.90;58.30;;;;;;5054106;28;20653;-62
2021/05/26 03:19:06;;;;;;;0.80;0.80;;;16.90;58.30;;;;;;5054980;28;20509;-63
2021/05/26 03:21:31;;;;;;;1.17;0.95;;;16.90;58.30;;;;;;5055140;28;20175;-63
2021/05/26 03:23:57;;;;;;;1.45;0.95;;;16.80;58.40;;;;;;5054526;28;20180;-62
2021/05/26 03:26:23;;;;;;;0.98;0.85;;;16.80;58.30;;;;;;5055276;28;20167;-63
2021/05/26 03:28:48;;;;;;;0.90;0.90;;;16.90;58.40;;;;;;5054679;28;20225;-63
2021/05/26 03:31:14;;;;;;;0.50;0.50;;;16.90;58.40;;;;;;5054291;28;20174;-63
2021/05/26 03:33:39;;;;;;;1.25;1.00;;;16.80;58.30;;;;;;5054572;28;20660;-63
2021/05/26 03:36:05;;;;;;;0.70;0.70;;;16.80;58.40;;;;;;5037272;28;20199;-63
2021/05/26 03:38:31;;;;;;;0.75;0.65;;;16.80;58.30;;;;;;5054113;28;20302;-63
2021/05/26 03:40:56;;;;;;;1.17;1.08;;;16.80;58.40;;;;;;5054513;28;20686;-62
2021/05/26 03:43:22;;;;;;;0.70;0.70;;;16.80;58.30;;;;;;5054696;28;20641;-63
2021/05/26 03:45:47;;;;;;;1.00;0.80;;;16.80;58.40;;;;;;5053538;28;20177;-63
2021/05/26 03:48:13;;;;;;;0.70;0.70;;;16.80;58.40;;;;;;5054622;28;20179;-63
2021/05/26 03:50:39;;;;;;;0.80;0.80;;;16.80;58.40;;;;;;5054199;28;20182;-63
2021/05/26 03:53:05;;;;;;;0.82;0.77;;;16.80;58.40;;;;;;5053940;28;20176;-63
2021/05/26 03:55:30;;;;;;;1.00;0.90;;;16.80;58.40;;;;;;5054393;28;20198;-63
2021/05/26 03:57:56;;;;;;;0.80;0.80;;;16.80;58.40;;;;;;5054417;28;20202;-63
2021/05/26 04:00:21;;;;;;;0.80;0.80;;;16.80;58.40;;;;;;5053652;28;20190;-63
2021/05/26 04:02:48;;;;;;;2.30;0.85;;;16.80;58.40;;;;;;5054011;28;20179;-63
2021/05/26 04:05:13;;;;;;;0.70;0.70;;;16.80;58.40;;;;;;5054223;28;20516;-64
2021/05/26 04:07:39;;;;;;;0.70;0.70;;;16.80;58.40;;;;;;5053467;28;20183;-64
2021/05/26 04:10:06;;;;;;;0.75;0.75;;;16.80;58.40;;;;;;5054258;28;20225;-64
2021/05/26 04:12:31;;;;;;;0.80;0.80;;;16.80;58.40;;;;;;5053057;28;20186;-63
2021/05/26 04:14:57;;;;;;;1.45;0.98;;;16.80;58.40;;;;;;5053980;28;20183;-63
2021/05/26 04:17:22;;;;;;;0.80;0.80;;;16.80;58.40;;;;;;5054028;28;20175;-63
2021/05/26 04:19:48;;;;;;;0.60;0.60;;;16.80;58.40;;;;;;5053190;28;20552;-63
2021/05/26 04:22:13;;;;;;;0.77;0.70;;;16.70;58.40;;;;;;5054138;28;20167;-63
2021/05/26 04:24:39;;;;;;;1.00;0.93;;;16.80;58.40;;;;;;5053018;28;20210;-63
2021/05/26 04:27:05;;;;;;;1.15;0.90;;;16.70;58.30;;;;;;5053096;28;20177;-63
2021/05/26 04:29:31;;;;;;;1.00;0.90;;;16.80;58.40;;;;;;5053869;28;20533;-63
2021/05/26 04:31:57;;;;;;;0.95;0.95;;;16.80;58.40;;;;;;5036039;28;20183;-63
2021/05/26 04:34:23;;;;;;;1.88;1.00;;;16.80;58.40;;;;;;5053148;28;20601;-63
2021/05/26 04:36:49;;;;;;;1.25;1.00;;;16.80;58.30;;;;;;5053426;28;20211;-63
2021/05/26 04:39:14;;;;;;;1.02;0.90;;;16.80;58.40;;;;;;5053547;28;20241;-63
2021/05/26 04:41:40;;;;;;;0.98;0.98;;;16.80;58.40;;;;;;5052434;28;20280;-63
2021/05/26 04:44:08;;;;;;;1.10;1.00;;;16.80;58.40;;;;;;5052355;28;20214;-63
2021/05/26 04:46:34;;;;;;;0.82;0.82;;;16.80;58.40;;;;;;5053085;28;20171;-63
2021/05/26 04:48:59;;;;;;;0.98;0.88;;;16.80;58.40;;;;;;5052921;28;20187;-63
2021/05/26 04:51:25;;;;;;;1.25;1.10;;;16.80;58.40;;;;;;5053409;28;20171;-63
2021/05/26 04:53:50;;;;;;;1.00;0.88;;;16.80;58.40;;;;;;5053378;28;20622;-63
2021/05/26 04:56:16;;;;;;;2.78;1.02;;;16.80;58.40;;;;;;5052851;28;20390;-63
2021/05/26 04:58:42;;;;;;;0.82;0.82;;;16.80;58.40;;;;;;5053099;28;20285;-62
2021/05/26 05:01:08;;;;;;;1.10;1.00;;;16.80;58.40;;;;;;5053807;28;20642;-63
2021/05/26 05:03:34;;;;;;;1.60;1.08;;;16.80;58.30;;;;;;5052519;28;20190;-63
2021/05/26 05:05:59;;;;;;;1.05;0.80;;;16.80;58.30;;;;;;5053389;28;20171;-63
2021/05/26 05:08:25;;;;;;;1.08;1.00;;;16.80;58.30;;;;;;5053251;28;20547;-64
2021/05/26 05:10:53;;;;;;;1.15;1.08;;;16.90;58.60;;;;;;5051945;28;20566;-63
2021/05/26 05:13:18;;;;;;;0.88;0.88;;;17.00;58.40;;;;;;5052939;28;20190;-61
2021/05/26 05:15:44;;;;;;;1.08;0.98;;;17.20;59.20;;;;;;5052275;28;20171;-60
2021/05/26 05:18:09;;;;;;;3.88;1.20;;;17.40;58.60;;;;;;5053088;28;20698;-60
2021/05/26 05:20:35;;;;;;;1.48;0.93;;;17.60;58.40;;;;;;5053101;28;20175;-60
2021/05/26 05:23:00;;;;;;;1.52;0.90;;;17.90;58.10;;;;;;5052448;28;20175;-60
2021/05/26 05:25:26;;;;;;;3.03;1.27;;;18.00;57.90;;;;;;5052855;28;20179;-62
2021/05/26 05:27:51;;;;;;;2.28;1.30;;;18.30;57.70;;;;;;5052796;28;20163;-60
2021/05/26 05:30:17;;;;;;;1.95;1.10;;;18.50;57.50;;;;;;5051962;28;20175;-61
2021/05/26 05:32:43;;;;;;;2.33;1.27;;;18.60;57.30;;;;;;5052707;28;20167;-61
2021/05/26 05:35:09;;;;;;;2.28;0.90;;;18.60;57.10;;;;;;5052787;28;20250;-61
2021/05/26 05:37:34;;;;;;;1.75;1.23;;;18.70;57.00;;;;;;5051579;28;20194;-61
2021/05/26 05:40:00;;;;;;;2.30;1.20;;;18.80;57.00;;;;;;5052283;28;20314;-61
2021/05/26 05:42:27;;;;;;;2.30;1.02;;;18.90;56.90;;;;;;5052746;28;20532;-62
2021/05/26 05:44:53;;;;;;;1.20;1.10;;;19.00;56.80;;;;;;5051382;28;20186;-62
2021/05/26 05:47:18;;;;;;;1.85;1.20;;;19.10;56.70;;;;;;5052516;28;20267;-61
2021/05/26 05:49:44;;;;;;;1.45;0.90;;;19.10;56.60;;;;;;5052209;28;20171;-62
2021/05/26 05:52:11;;;;;;;3.50;1.10;;;19.10;56.50;;;;;;5051837;28;20179;-62
2021/05/26 05:54:36;;;;;;;3.20;1.00;;;19.10;56.60;;;;;;5051980;28;20232;-62
2021/05/26 05:57:03;;;;;;;2.08;1.20;;;19.00;56.70;;;;;;5052340;28;20183;-62
2021/05/26 05:59:28;;;;;;;2.92;1.33;;;18.90;56.80;;;;;;5033821;28;20276;-62
2021/05/26 06:01:54;;;;;;;2.70;1.23;;;18.80;56.90;;;;;;5052140;28;20624;-62
2021/05/26 06:04:19;;;;;;;2.22;1.30;;;18.80;57.10;;;;;;5052513;28;20175;-62
2021/05/26 06:06:45;;;;;;;2.22;1.38;;;18.70;57.30;;;;;;5051335;28;20692;-62
2021/05/26 06:09:10;;;;;;;2.22;1.17;;;18.60;57.50;;;;;;5052548;28;20210;-63
2021/05/26 06:11:36;;;;;;;3.25;1.40;;;18.50;57.60;;;;;;5052440;28;20250;-62
2021/05/26 06:14:06;;;;;;;3.03;1.30;;;18.40;57.70;;;;;;5052551;28;20197;-62
2021/05/26 06:16:33;;;;;;;1.85;1.50;;;18.40;57.90;;;;;;5052680;28;20528;-61
2021/05/26 06:18:59;;;;;;;3.45;1.10;;;18.30;58.00;;;;;;5052146;28;20218;-61
2021/05/26 06:21:24;;;;;;;2.42;1.38;;;18.30;58.20;;;;;;5052775;28;20175;-61
2021/05/26 06:23:53;;;;;;;4.03;1.33;;;18.20;58.10;;;;;;5051903;28;20217;-61
2021/05/26 06:26:18;;;;;;;3.05;1.48;;;18.20;58.20;;;;;;5051529;28;20175;-62
2021/05/26 06:28:44;;;;;;;3.38;1.55;;;18.20;58.20;;;;;;5052532;28;20190;-62
2021/05/26 06:31:10;;;;;;;2.85;1.25;;;18.20;58.20;;;;;;5052940;28;20229;-61
2021/05/26 06:33:35;;;;;;;3.85;1.30;;;18.20;58.10;;;;;;5052116;28;20171;-61
2021/05/26 06:36:01;;;;;;;2.38;1.33;;;18.20;58.10;;;;;;5053654;28;20194;-66
2021/05/26 06:38:26;;;;;;;1.83;1.10;;;18.20;58.20;;;;;;5053098;28;20260;-64
2021/05/26 06:40:52;;;;;;;3.85;1.48;;;18.20;58.50;;;;;;5050971;28;20214;-63
2021/05/26 06:43:17;;;;;;;3.75;1.05;;;18.20;58.50;;;;;;5051885;28;20182;-63
2021/05/26 06:45:43;;;;;;;3.10;1.35;;;18.20;58.50;;;;;;5053034;28;20182;-64
2021/05/26 06:48:09;;;;;;;2.33;1.25;;;18.10;58.60;;;;;;5053666;28;20163;-64
2021/05/26 06:50:34;;;;;;;2.60;1.50;;;18.10;58.60;;;;;;5055579;28;20171;-65
2021/05/26 06:53:00;;;;;;;2.30;1.30;;;18.10;58.60;;;;;;5056626;28;20178;-64
2021/05/26 06:55:25;;;;;;;3.25;1.10;;;18.10;58.60;;;;;;5056567;28;20630;-64
2021/05/26 06:57:51;;;;;;;3.03;1.30;;;18.20;58.60;;;;;;5055783;28;20234;-64
2021/05/26 07:00:17;;;;;;;2.08;1.30;;;18.20;58.60;;;;;;5055694;28;20179;-63
2021/05/26 07:02:42;;;;;;;3.15;1.30;;;18.20;58.90;;;;;;5054890;28;20198;-64
2021/05/26 07:05:08;;;;;;;2.17;1.48;;;18.20;58.40;;;;;;5055613;28;20179;-64
2021/05/26 07:07:34;;;;;;;1.90;1.23;;;18.20;58.50;;;;;;5055921;28;20672;-64
2021/05/26 07:10:00;;;;;;;5.32;1.30;;;18.20;58.50;;;;;;5055010;28;20182;-65
2021/05/26 07:12:25;;;;;;;2.45;1.33;;;18.20;58.60;;;;;;5055542;28;20190;-64
2021/05/26 07:14:51;;;;;;;1.65;1.02;;;18.20;58.60;;;;;;5054910;28;20172;-64
2021/05/26 07:17:16;;;;;;;2.58;1.23;;;18.20;58.60;;;;;;5055143;28;20191;-65
2021/05/26 07:19:42;;;;;;;1.40;1.30;;;18.20;58.70;;;;;;5055019;28;20218;-64
2021/05/26 07:22:07;;;;;;;1.58;1.10;;;18.20;58.70;;;;;;5055396;28;20258;-62
2021/05/26 07:24:33;;;;;;;2.97;1.23;;;18.30;58.70;;;;;;5054173;28;20226;-63
2021/05/26 07:26:58;;;;;;;3.00;1.10;;;18.30;58.50;;;;;;5055090;28;20529;-63
2021/05/26 07:29:24;;;;;;;2.70;1.73;;;18.30;58.40;;;;;;5054235;28;20241;-63
2021/05/26 07:31:49;;;;;;;5.18;1.60;;;18.30;58.40;;;;;;5054734;28;20202;-63
2021/05/26 07:34:15;;;;;;;2.08;1.13;;;18.30;58.40;;;;;;5055179;28;20703;-63
2021/05/26 07:36:40;;;;;;;2.80;1.50;;;18.30;58.40;;;;;;5053928;28;20171;-64
2021/05/26 07:39:06;;;;;;;1.75;1.30;;;18.20;58.40;;;;;;5054701;28;20310;-64
2021/05/26 07:41:31;;;;;;;2.15;1.30;;;18.20;58.40;;;;;;5054095;28;20546;-63
2021/05/26 07:43:57;;;;;;;1.75;1.00;;;18.20;58.40;;;;;;5053842;28;20637;-63
2021/05/26 07:46:22;;;;;;;1.52;1.20;;;18.20;58.40;;;;;;5054904;28;20173;-64
2021/05/26 07:48:51;;;;;;;1.67;0.93;;;18.20;58.50;;;;;;5054457;28;20186;-64
2021/05/26 07:51:19;;;;;;;1.40;1.30;;;18.20;58.40;;;;;;5054022;28;20753;-64
2021/05/26 07:53:44;;;;;;;2.13;1.55;;;18.10;58.50;;;;;;5054191;28;20179;-64
2021/05/26 07:56:10;;;;;;;3.08;1.52;;;18.20;58.50;;;;;;5054606;28;20175;-64
2021/05/26 07:58:35;;;;;;;2.30;1.30;;;18.20;58.40;;;;;;5053314;28;20214;-64
2021/05/26 08:01:01;;;;;;;1.45;1.02;;;18.20;58.30;;;;;;5053605;28;20174;-64
2021/05/26 08:03:26;;;;;;;1.95;1.23;;;18.20;58.20;;;;;;5054429;28;20179;-64
2021/05/26 08:05:53;;;;;;;3.88;1.35;;;18.20;58.10;;;;;;5053133;28;20179;-65
2021/05/26 08:08:18;;;;;;;1.85;1.50;;;18.20;58.30;;;;;;5054303;28;20183;-65
2021/05/26 08:10:44;;;;;;;1.25;1.15;;;18.30;58.20;;;;;;5053873;28;20175;-65
2021/05/26 08:13:10;;;;;;;1.50;1.17;;;18.30;58.10;;;;;;5053365;28;20247;-64
2021/05/26 08:15:35;;;;;;;2.30;1.60;;;18.30;58.20;;;;;;5054069;28;20206;-64
2021/05/26 08:18:01;;;;;;;5.47;1.70;;;18.30;58.20;;;;;;5053942;28;20199;-64
2021/05/26 08:20:27;;;;;;;1.20;1.10;;;18.20;58.20;;;;;;5053617;28;20186;-63
2021/05/26 08:22:53;;;;;;;3.60;1.48;;;18.20;58.30;;;;;;5053764;28;20537;-63
2021/05/26 08:25:18;;;;;;;1.27;1.13;;;18.20;58.40;;;;;;5053810;28;20171;-63
2021/05/26 08:27:44;;;;;;;2.45;1.48;;;18.20;58.40;;;;;;5052822;28;20175;-64
2021/05/26 08:30:09;;;;;;;2.22;1.20;;;18.20;58.40;;;;;;5053734;28;20518;-64
2021/05/26 08:32:35;;;;;;;2.13;1.23;;;18.20;58.50;;;;;;5053537;28;20179;-64
2021/05/26 08:35:00;;;;;;;2.80;1.45;;;18.10;58.50;;;;;;5052999;28;20202;-64
2021/05/26 08:37:26;;;;;;;2.33;1.48;;;18.10;58.40;;;;;;5053780;28;20179;-64
2021/05/26 08:39:51;;;;;;;2.08;1.33;;;18.10;58.40;;;;;;5052679;28;20179;-64
2021/05/26 08:42:17;;;;;;;2.33;1.30;;;18.10;58.50;;;;;;5053578;28;20198;-64
2021/05/26 08:44:43;;;;;;;3.15;1.50;;;18.10;58.40;;;;;;5053533;28;20536;-64
2021/05/26 08:47:16;;;;;;;3.33;1.55;;;18.10;58.60;;;;;;5052916;28;20175;-64
2021/05/26 08:49:46;;;;;;;2.00;1.45;;;18.00;58.50;;;;;;5036864;28;20185;-64
2021/05/26 08:52:15;;;;;;;1.40;1.30;;;18.00;58.60;;;;;;5054054;28;20211;-64
2021/05/26 08:54:47;;;;;;;1.98;1.60;;;18.00;58.50;;;;;;5035141;28;20178;-64
2021/05/26 08:57:16;;;;;;;4.55;1.50;;;18.00;58.70;;;;;;5053441;28;20171;-65
2021/05/26 08:59:41;;;;;;;2.83;1.40;;;18.00;58.90;;;;;;5052968;28;20636;-61
2021/05/26 09:02:10;;;;;;;1.70;1.60;;;18.00;58.90;;;;;;5052507;28;20762;-62
2021/05/26 09:04:36;;;;;;;2.67;1.45;;;18.20;58.80;;;;;;5052896;28;20172;-63
2021/05/26 09:07:16;;;;;;;2.03;1.38;;;18.20;58.50;;;;;;5052926;28;20174;-63
2021/05/26 09:09:47;;;;;;;2.05;1.20;;;18.20;58.40;;;;;;5052161;28;20179;-64
2021/05/26 09:12:13;;;;;;;1.83;1.38;;;18.20;58.40;;;;;;5052635;28;20612;-63
2021/05/26 09:14:39;;;;;;;2.53;1.48;;;18.20;58.50;;;;;;5052697;28;20199;-63
2021/05/26 09:17:11;;;;;;;1.88;1.50;;;18.20;58.50;;;;;;5052146;28;20679;-63
2021/05/26 09:19:37;;;;;;;2.65;1.30;;;18.30;58.40;;;;;;5052363;28;20657;-62
2021/05/26 09:22:13;;;;;;;1.83;1.35;;;18.30;58.30;;;;;;5052218;28;20215;-63
2021/05/26 09:24:38;;;;;;;1.55;1.25;;;18.30;58.70;;;;;;5052652;28;20179;-62
2021/05/26 09:27:08;;;;;;;2.67;1.40;;;18.40;58.50;;;;;;5052665;28;20182;-63
2021/05/26 09:29:37;;;;;;;2.78;1.70;;;18.40;58.50;;;;;;5051883;28;20179;-63
2021/05/26 09:32:17;;;;;;;2.30;1.40;;;18.30;58.60;;;;;;5052276;28;20736;-62
2021/05/26 09:34:55;;;;;;;2.25;1.30;;;18.40;58.70;;;;;;5052619;28;20174;-63
2021/05/26 09:37:22;;;;;;;1.10;1.00;;;18.40;58.40;;;;;;5052027;28;20517;-63
2021/05/26 09:40:07;;;;;;;1.30;1.20;;;18.40;58.50;;;;;;5052195;28;20214;-63
2021/05/26 09:42:35;;;;;;;1.92;1.38;;;18.40;58.50;;;;;;5032420;28;20226;-62
2021/05/26 09:45:17;;;;;;;2.60;1.58;;;18.40;58.50;;;;;;5032077;28;20171;-63
2021/05/26 09:47:44;;;;;;;1.35;1.25;;;18.40;58.60;;;;;;5032509;28;20176;-63
2021/05/26 09:50:22;;;;;;;1.85;1.50;;;18.30;58.60;;;;;;5031998;28;20180;-63
2021/05/26 09:52:58;;;;;;;1.90;1.30;;;18.30;58.70;;;;;;5032403;28;20194;-63
2021/05/26 09:55:25;;;;;;;2.08;1.38;;;18.30;58.70;;;;;;5032788;28;20229;-63
2021/05/26 09:57:51;;;;;;;1.35;1.13;;;18.30;58.80;;;;;;5031604;28;20215;-63
2021/05/26 10:00:18;;;;;;;2.35;1.30;;;18.20;58.80;;;;;;5032608;28;20201;-63
2021/05/26 10:02:44;;;;;;;1.48;1.38;;;18.30;58.70;;;;;;5032384;28;20202;-63
2021/05/26 10:05:10;;;;;;;1.55;1.45;;;18.40;58.40;;;;;;5032093;28;20634;-63
2021/05/26 10:07:37;;;;;;;1.70;1.60;;;18.50;58.30;;;;;;5032066;28;20172;-64
2021/05/26 10:10:03;;;;;;;2.22;1.35;;;18.50;58.10;;;;;;5015246;28;20234;-63
2021/05/26 10:12:28;;;;;;;2.45;1.50;;;18.50;58.10;;;;;;5014313;28;20172;-63
2021/05/26 10:14:54;;;;;;;2.22;1.50;;;18.60;58.00;;;;;;5014552;28;20539;-62
2021/05/26 10:17:23;;;;;;;1.38;1.27;;;18.50;58.30;;;;;;5014744;28;20176;-63
2021/05/26 10:19:49;;;;;;;2.67;1.63;;;18.40;58.30;;;;;;5014366;28;20678;-63
2021/05/26 10:22:15;;;;;;;1.65;1.55;;;18.40;58.30;;;;;;5015479;28;20172;-62
2021/05/26 10:24:42;;;;;;;2.03;1.80;;;18.50;58.30;;;;;;5018659;28;20176;-62
2021/05/26 10:27:08;;;;;;;2.40;1.75;;;18.60;58.30;;;;;;5018265;28;20175;-62
2021/05/26 10:29:35;;;;;;;1.52;1.20;;;18.40;58.30;;;;;;5036123;28;20180;-63
2021/05/26 10:32:24;;;;;;;3.25;1.40;;;18.30;58.40;;;;;;5036207;28;20510;-63
2021/05/26 10:34:52;;;;;;;4.10;1.70;;;18.30;58.70;;;;;;5035684;28;20538;-62
2021/05/26 10:37:29;;;;;;;3.83;2.08;;;18.30;58.70;;;;;;5036218;28;20229;-62
2021/05/26 10:39:58;;;;;;;4.88;1.90;;;18.20;58.70;;;;;;5035477;28;20584;-62
2021/05/26 10:42:25;;;;;;;1.65;1.50;;;18.20;58.80;;;;;;5038131;28;20194;-62
2021/05/26 10:45:03;;;;;;;3.25;1.85;;;18.10;58.80;;;;;;5055365;28;20179;-62
2021/05/26 10:47:38;;;;;;;3.00;1.60;;;18.10;58.90;;;;;;5055287;28;20171;-63
2021/05/26 10:50:04;;;;;;;1.77;1.50;;;18.00;59.60;;;;;;5055754;28;20416;-64
2021/05/26 10:52:50;;;;;;;2.50;1.70;;;18.00;59.00;;;;;;5056018;28;20516;-63
2021/05/26 10:55:29;;;;;;;3.42;1.50;;;18.00;59.10;;;;;;5040410;28;20207;-63
2021/05/26 10:58:20;;;;;;;1.70;1.17;;;18.00;59.20;;;;;;5037312;28;20301;-62
2021/05/26 11:00:47;;;;;;;3.15;1.63;;;18.00;59.20;;;;;;5054429;28;20179;-66
2021/05/26 11:03:24;;;;;;;4.28;1.50;;;18.00;59.20;;;;;;5055396;28;20270;-64
2021/05/26 11:05:53;;;;;;;5.05;1.58;;;18.00;59.30;;;;;;5054950;28;20224;-64
2021/05/26 11:08:42;;;;;;;2.20;1.20;;;18.00;59.30;;;;;;5054807;28;20202;-64
2021/05/26 11:11:23;;;;;;;2.30;1.42;;;18.00;59.20;;;;;;5055339;28;20272;-64
2021/05/26 11:14:03;;;;;;;2.33;1.42;;;18.10;59.30;;;;;;5054760;28;20171;-63
2021/05/26 11:16:41;;;;;;;2.85;1.40;;;18.10;59.30;;;;;;5054516;28;20265;-63
2021/05/26 11:19:14;;;;;;;3.53;1.45;;;18.10;59.40;;;;;;5055867;28;20218;-63
2021/05/26 11:21:41;;;;;;;2.85;1.40;;;18.10;59.30;;;;;;5054853;28;20542;-63
2021/05/26 11:24:07;;;;;;;3.58;1.55;;;18.10;59.20;;;;;;5054348;28;20269;-63
2021/05/26 11:26:33;;;;;;;2.78;1.42;;;18.20;59.20;;;;;;5055438;28;20672;-62
2021/05/26 11:28:58;;;;;;;4.25;1.60;;;18.20;59.10;;;;;;5054885;28;20274;-62
2021/05/26 11:31:24;;;;;;;2.63;1.33;;;18.20;59.10;;;;;;5055868;28;20299;-61
2021/05/26 11:33:56;;;;;;;1.30;1.20;;;18.20;58.90;;;;;;5055565;28;20221;-61
2021/05/26 11:36:40;;;;;;;3.42;1.20;;;18.30;58.90;;;;;;5055326;28;20186;-62
2021/05/26 11:39:20;;;;;;;1.98;1.30;;;18.30;58.90;;;;;;5053935;28;20289;-62
2021/05/26 11:41:45;;;;;;;2.45;1.63;;;18.20;59.00;;;;;;5053978;28;20222;-62
2021/05/26 11:44:11;;;;;;;4.75;1.55;;;18.20;59.00;;;;;;5054061;28;20178;-62
2021/05/26 11:46:36;;;;;;;2.35;1.15;;;18.30;59.00;;;;;;5054405;28;20167;-62
2021/05/26 11:49:14;;;;;;;4.32;1.23;;;18.30;58.80;;;;;;5054552;28;20171;-62
2021/05/26 11:51:39;;;;;;;3.30;1.50;;;18.40;58.70;;;;;;5053530;28;20179;-62
2021/05/26 11:54:09;;;;;;;2.92;1.40;;;18.30;58.70;;;;;;5054600;28;20579;-62
2021/05/26 11:56:34;;;;;;;2.85;1.40;;;18.30;58.70;;;;;;5053719;28;20634;-62
2021/05/26 11:59:00;;;;;;;2.80;1.20;;;18.30;58.70;;;;;;5053926;28;20253;-62
2021/05/26 12:01:33;;;;;;;1.95;1.40;;;18.30;58.80;;;;;;5036395;28;20167;-62
2021/05/26 12:03:59;;;;;;;2.40;1.23;;;18.30;58.70;;;;;;5053732;28;20254;-62
2021/05/26 12:06:24;;;;;;;2.22;1.02;;;18.20;58.60;;;;;;5054588;28;20584;-62
2021/05/26 12:08:50;;;;;;;3.10;1.50;;;18.20;58.70;;;;;;5054066;28;20179;-62
2021/05/26 12:11:20;;;;;;;2.38;1.40;;;18.20;58.80;;;;;;5054000;28;20225;-62
2021/05/26 12:13:46;;;;;;;2.15;1.10;;;18.20;58.80;;;;;;5054272;28;20227;-62
2021/05/26 12:16:18;;;;;;;2.17;1.20;;;18.20;58.80;;;;;;5054876;28;20175;-62
2021/05/26 12:18:51;;;;;;;1.92;1.17;;;18.20;58.90;;;;;;5053464;28;20207;-62
2021/05/26 12:21:17;;;;;;;1.40;1.30;;;18.20;58.80;;;;;;5054410;28;20541;-62
2021/05/26 12:23:44;;;;;;;1.38;1.05;;;18.30;58.70;;;;;;5054417;28;20237;-62
2021/05/26 12:26:25;;;;;;;1.35;1.20;;;18.40;58.20;;;;;;5054685;28;20176;-62
2021/05/26 12:28:58;;;;;;;2.83;1.58;;;18.40;58.20;;;;;;5054761;28;20186;-62
2021/05/26 12:31:27;;;;;;;1.48;1.10;;;18.50;58.30;;;;;;5053721;28;20183;-62
2021/05/26 12:33:53;;;;;;;2.60;1.15;;;18.60;58.00;;;;;;5053711;28;20247;-62
2021/05/26 12:36:24;;;;;;;2.13;1.25;;;18.70;57.90;;;;;;5055151;28;20183;-62
2021/05/26 12:39:05;;;;;;;1.02;0.95;;;18.80;57.60;;;;;;5053832;28;20693;-63
2021/05/26 12:41:37;;;;;;;1.75;1.13;;;18.80;57.70;;;;;;5053158;28;20249;-62
2021/05/26 12:44:08;;;;;;;1.75;1.20;;;18.80;57.60;;;;;;5053614;28;20249;-62
2021/05/26 12:46:55;;;;;;;2.50;1.00;;;18.70;57.80;;;;;;5050942;28;20214;-62
2021/05/26 12:49:30;;;;;;;1.13;1.00;;;18.60;58.00;;;;;;5053543;28;20202;-63
2021/05/26 12:51:56;;;;;;;2.80;1.40;;;18.60;58.10;;;;;;5052588;28;20178;-62